Time;durP1;ratioP1;P1;durP2;ratioP2;P2;SDS_P1;SDS_P2;PMS_P1;PMS_P2;Temp;Humidity;BMP_temperature;BMP_pressure;BME280_temperature;BME280_humidity;BME280_pressure;Samples;Min_cycle;Max_cycle;Signal;HPM_P1;HPM_P2
2022/08/06 00:00:51;;;;;;;1.48;0.95;;;;;;;19.82;60.49;99260.41;5043639;28;20033;-69
2022/08/06 00:03:16;;;;;;;1.00;0.77;;;;;;;19.85;60.74;99259.06;5046520;28;20021;-69
2022/08/06 00:05:41;;;;;;;1.33;0.90;;;;;;;19.77;61.20;99257.56;5026140;28;20541;-69
2022/08/06 00:08:07;;;;;;;2.85;0.90;;;;;;;19.77;61.64;99262.25;5035381;28;20060;-69
2022/08/06 00:10:32;;;;;;;2.05;0.80;;;;;;;19.69;61.44;99256.09;5043017;28;20113;-69
2022/08/06 00:12:59;;;;;;;1.85;0.80;;;;;;;19.74;61.60;99258.09;5046375;28;20061;-69
2022/08/06 00:15:24;;;;;;;2.70;1.00;;;;;;;19.67;60.78;99252.75;5035748;28;20021;-69
2022/08/06 00:17:49;;;;;;;2.10;0.90;;;;;;;19.74;60.46;99268.25;5043668;28;20038;-70
2022/08/06 00:20:15;;;;;;;2.70;1.02;;;;;;;19.72;59.90;99275.88;5047915;28;20138;-69
2022/08/06 00:22:41;;;;;;;3.03;0.80;;;;;;;19.71;60.21;99277.81;5037078;28;20060;-69
2022/08/06 00:25:08;;;;;;;2.92;0.90;;;;;;;19.74;60.12;99280.03;5043286;28;20118;-69
2022/08/06 00:27:34;;;;;;;1.65;0.77;;;;;;;19.73;60.50;99286.63;5034939;28;20120;-69
2022/08/06 00:29:59;;;;;;;3.03;0.95;;;;;;;19.71;60.64;99286.03;5046126;28;20162;-69
2022/08/06 00:32:25;;;;;;;2.53;0.90;;;;;;;19.67;60.89;99277.47;5026210;28;20025;-69
2022/08/06 00:34:50;;;;;;;3.83;0.90;;;;;;;19.66;61.01;99277.69;5040370;28;20029;-69
2022/08/06 00:37:15;;;;;;;1.88;1.00;;;;;;;19.60;61.54;99275.97;5036729;28;20151;-69
2022/08/06 00:39:41;;;;;;;1.48;0.70;;;;;;;19.57;61.95;99274.56;5044365;28;20421;-69
2022/08/06 00:42:06;;;;;;;1.17;0.80;;;;;;;19.57;62.82;99273.69;5040405;28;20019;-69
2022/08/06 00:44:31;;;;;;;1.63;0.80;;;;;;;19.62;62.33;99266.41;5039340;28;20071;-69
2022/08/06 00:46:57;;;;;;;3.40;1.00;;;;;;;19.63;60.95;99268.06;5038833;28;20075;-69
2022/08/06 00:49:23;;;;;;;4.25;0.95;;;;;;;19.44;60.33;99258.41;5042766;28;20040;-69
2022/08/06 00:51:48;;;;;;;3.05;0.70;;;;;;;19.47;61.02;99268.91;5040240;28;20107;-69
2022/08/06 00:54:13;;;;;;;2.10;0.90;;;;;;;19.44;60.10;99275.72;5044252;28;20048;-69
2022/08/06 00:56:39;;;;;;;0.98;0.68;;;;;;;19.45;60.54;99277.38;5040911;28;20024;-69
2022/08/06 00:59:04;;;;;;;2.08;0.73;;;;;;;19.54;59.74;99285.19;5041258;28;20029;-69
2022/08/06 01:01:33;;;;;;;2.85;1.00;;;;;;;19.46;60.48;99284.50;5044073;28;20029;-69
2022/08/06 01:03:58;;;;;;;3.35;1.08;;;;;;;19.40;61.30;99284.69;5047443;28;20079;-69
2022/08/06 01:06:23;;;;;;;3.47;0.95;;;;;;;19.33;61.99;99265.63;5041587;28;20514;-70
2022/08/06 01:08:49;;;;;;;2.05;0.80;;;;;;;19.44;61.73;99281.22;5041973;28;20351;-69
2022/08/06 01:11:14;;;;;;;1.58;0.65;;;;;;;19.45;61.50;99282.84;5041415;28;20029;-69
2022/08/06 01:13:40;;;;;;;1.73;0.88;;;;;;;19.43;61.44;99279.53;5037886;28;20497;-69
2022/08/06 01:16:37;;;;;;;1.50;0.80;;;;;;;19.36;61.28;99281.63;5041904;28;20371;-69
2022/08/06 01:19:39;;;;;;;2.55;0.80;;;;;;;19.26;61.93;99285.03;5027279;28;20135;-70
2022/08/06 01:22:13;;;;;;;7.18;0.98;;;;;;;19.30;61.94;99292.75;5042641;28;20035;-69
2022/08/06 01:24:51;;;;;;;2.30;0.70;;;;;;;19.26;61.34;99284.19;5038527;28;20029;-69
2022/08/06 01:27:36;;;;;;;2.80;0.75;;;;;;;19.17;62.22;99291.16;5022075;28;20116;-69
2022/08/06 01:30:07;;;;;;;1.70;0.63;;;;;;;19.13;62.93;99295.50;5040340;28;20102;-69
2022/08/06 01:32:43;;;;;;;4.00;0.93;;;;;;;19.00;62.91;99285.66;5040440;28;20024;-70
2022/08/06 01:35:16;;;;;;;1.30;0.75;;;;;;;18.88;63.58;99304.91;5039053;28;23387;-69
2022/08/06 01:38:03;;;;;;;1.65;1.00;;;;;;;18.78;64.15;99296.47;5044427;28;20029;-69
2022/08/06 01:40:32;;;;;;;3.25;0.98;;;;;;;18.62;64.42;99307.09;5022114;28;20028;-69
2022/08/06 01:43:00;;;;;;;1.02;0.70;;;;;;;18.55;64.93;99311.91;5041547;28;20087;-69
2022/08/06 01:45:30;;;;;;;2.38;0.90;;;;;;;18.50;65.65;99308.25;5038435;28;20494;-69
2022/08/06 01:48:03;;;;;;;2.67;0.93;;;;;;;18.44;65.72;99307.28;5042686;28;20496;-69
2022/08/06 01:50:35;;;;;;;1.13;0.80;;;;;;;18.47;65.57;99304.06;5036845;28;20033;-69
2022/08/06 01:53:03;;;;;;;5.13;1.05;;;;;;;18.43;65.43;99302.88;5024735;28;20032;-69
2022/08/06 01:55:32;;;;;;;1.73;0.65;;;;;;;18.45;65.95;99299.91;5025684;28;20051;-69
2022/08/06 01:58:00;;;;;;;1.98;0.70;;;;;;;18.40;65.91;99298.72;5047317;28;20111;-69
2022/08/06 02:00:26;;;;;;;3.25;0.80;;;;;;;18.29;66.93;99285.91;5037456;28;20044;-69
2022/08/06 02:02:54;;;;;;;3.33;1.10;;;;;;;18.21;67.30;99290.91;5039398;28;20033;-69
2022/08/06 02:05:22;;;;;;;1.23;0.63;;;;;;;18.18;67.39;99301.28;5052009;28;20021;-69
2022/08/06 02:07:50;;;;;;;2.83;0.80;;;;;;;18.21;67.59;99305.44;5044600;28;20039;-69
2022/08/06 02:10:18;;;;;;;1.05;0.70;;;;;;;18.16;67.59;99308.06;5038553;28;20063;-69
2022/08/06 02:12:46;;;;;;;1.38;0.77;;;;;;;18.20;67.98;99303.75;5045499;28;20029;-69
2022/08/06 02:15:17;;;;;;;0.98;0.80;;;;;;;18.15;68.02;99301.75;5048422;28;20494;-69
2022/08/06 02:17:47;;;;;;;2.78;0.85;;;;;;;18.14;67.82;99311.03;5042377;28;20043;-69
2022/08/06 02:20:17;;;;;;;1.20;0.70;;;;;;;17.94;68.81;99300.44;5045010;28;20056;-69
2022/08/06 02:22:44;;;;;;;1.38;0.90;;;;;;;17.94;69.96;99316.06;5045262;28;20104;-69
2022/08/06 02:25:11;;;;;;;2.50;1.10;;;;;;;17.86;69.87;99302.72;5044262;28;20104;-69
2022/08/06 02:27:41;;;;;;;2.15;1.00;;;;;;;17.87;70.10;99309.88;5046942;28;20147;-69
2022/08/06 02:30:06;;;;;;;3.17;0.93;;;;;;;17.78;70.34;99303.88;5041025;28;20092;-69
2022/08/06 02:32:32;;;;;;;2.25;0.90;;;;;;;17.70;71.35;99309.72;5044426;28;20408;-69
2022/08/06 02:34:58;;;;;;;1.60;0.88;;;;;;;17.67;72.06;99310.19;5040520;28;20025;-68
2022/08/06 02:37:38;;;;;;;2.28;1.02;;;;;;;17.70;70.86;99298.78;5048236;28;20024;-68
2022/08/06 02:40:09;;;;;;;8.52;1.20;;;;;;;17.64;71.91;99306.03;5048132;28;20454;-69
2022/08/06 02:42:54;;;;;;;4.57;0.98;;;;;;;17.68;71.79;99300.91;5049246;28;20147;-69
2022/08/06 02:45:27;;;;;;;1.73;0.98;;;;;;;17.67;72.05;99302.00;5050911;28;20013;-69
2022/08/06 02:48:08;;;;;;;2.90;0.88;;;;;;;17.73;71.19;99296.38;5045800;28;20999;-69
2022/08/06 02:50:41;;;;;;;2.72;0.90;;;;;;;17.65;72.13;99304.94;5045607;28;20029;-69
2022/08/06 02:53:10;;;;;;;3.08;0.90;;;;;;;17.66;72.52;99306.63;5045785;28;20032;-69
2022/08/06 02:55:39;;;;;;;2.05;1.17;;;;;;;17.66;72.41;99298.44;5027389;28;20028;-69
2022/08/06 02:58:19;;;;;;;3.35;0.80;;;;;;;17.71;72.25;99303.16;5045726;28;20568;-68
2022/08/06 03:00:47;;;;;;;2.45;0.95;;;;;;;17.65;71.74;99288.53;5041444;28;20372;-69
2022/08/06 03:03:15;;;;;;;2.47;0.93;;;;;;;17.75;71.67;99305.19;5041247;28;20029;-69
2022/08/06 03:05:44;;;;;;;2.80;0.90;;;;;;;17.68;71.49;99296.28;5046931;28;20032;-69
2022/08/06 03:08:13;;;;;;;1.63;0.90;;;;;;;17.76;71.42;99308.75;5046600;28;20033;-69
2022/08/06 03:10:40;;;;;;;2.03;0.80;;;;;;;17.71;71.55;99312.22;5042882;28;20052;-69
2022/08/06 03:13:07;;;;;;;2.15;0.90;;;;;;;17.68;72.18;99320.06;5045213;28;20786;-69
2022/08/06 03:15:34;;;;;;;2.00;0.80;;;;;;;17.67;72.39;99319.25;5041971;28;20024;-69
2022/08/06 03:18:01;;;;;;;1.63;0.82;;;;;;;17.63;73.24;99328.16;5023281;28;20043;-69
2022/08/06 03:20:28;;;;;;;1.90;1.00;;;;;;;17.61;73.99;99327.56;5048031;28;20032;-69
2022/08/06 03:22:58;;;;;;;2.78;1.00;;;;;;;17.61;73.70;99331.16;5045989;28;20028;-69
2022/08/06 03:25:26;;;;;;;1.65;0.90;;;;;;;17.62;73.17;99341.00;5042022;28;20021;-69
2022/08/06 03:27:53;;;;;;;2.28;0.85;;;;;;;17.64;72.62;99322.44;5047355;28;20029;-69
2022/08/06 03:30:21;;;;;;;3.60;1.00;;;;;;;17.73;72.42;99337.44;5042226;28;20037;-69
2022/08/06 03:32:48;;;;;;;2.58;1.00;;;;;;;17.77;72.83;99345.19;5048504;28;20039;-69
2022/08/06 03:35:14;;;;;;;2.78;1.10;;;;;;;17.69;73.70;99340.91;5045238;28;20021;-69
2022/08/06 03:37:41;;;;;;;4.35;1.38;;;;;;;17.71;73.42;99350.53;5050236;28;20083;-69
2022/08/06 03:40:09;;;;;;;1.58;0.70;;;;;;;17.65;73.67;99350.66;5041320;28;20028;-69
2022/08/06 03:42:34;;;;;;;2.10;1.00;;;;;;;17.68;74.14;99342.81;5043500;28;20045;-69
2022/08/06 03:45:00;;;;;;;1.00;0.80;;;;;;;17.58;73.76;99353.50;5042663;28;20029;-69
2022/08/06 03:47:32;;;;;;;1.70;1.00;;;;;;;17.53;74.04;99342.44;5046683;28;20075;-69
2022/08/06 03:50:07;;;;;;;4.03;0.95;;;;;;;17.61;74.42;99363.16;5045939;28;20047;-69
2022/08/06 03:52:39;;;;;;;3.22;1.23;;;;;;;17.55;75.02;99361.34;5047805;28;20021;-69
2022/08/06 03:55:06;;;;;;;3.15;0.90;;;;;;;17.48;75.24;99367.75;5042867;28;20033;-69
2022/08/06 03:57:41;;;;;;;2.50;0.98;;;;;;;17.28;75.80;99353.53;5039824;28;20552;-69
2022/08/06 04:00:09;;;;;;;2.45;1.10;;;;;;;17.27;75.74;99354.63;5042985;28;20135;-69
2022/08/06 04:02:38;;;;;;;2.25;0.85;;;;;;;17.27;77.68;99376.50;5043005;28;20029;-67
2022/08/06 04:05:04;;;;;;;;;;;;;;;17.23;80.96;99376.13;5039691;28;20187;-69
2022/08/06 04:07:31;;;;;;;3.75;1.10;;;;;;;17.15;78.99;99373.72;5044454;28;20298;-69
2022/08/06 04:09:57;;;;;;;2.05;1.05;;;;;;;17.12;80.72;99374.19;5020519;28;20675;-68
2022/08/06 04:12:24;;;;;;;2.80;1.10;;;;;;;17.08;80.95;99382.03;5040767;28;20025;-70
2022/08/06 04:14:50;;;;;;;3.10;1.13;;;;;;;16.98;81.62;99373.53;5038496;28;20029;-67
2022/08/06 04:17:17;;;;;;;1.88;0.90;;;;;;;17.06;80.75;99375.94;5037766;28;20064;-69
2022/08/06 04:19:45;;;;;;;1.98;1.10;;;;;;;17.08;80.54;99381.16;5042778;28;20036;-67
2022/08/06 04:22:10;;;;;;;1.65;0.90;;;;;;;17.12;80.05;99376.91;5046793;28;20062;-69
2022/08/06 04:24:35;;;;;;;3.22;1.00;;;;;;;17.24;79.68;99386.00;5028023;28;20445;-68
2022/08/06 04:27:04;;;;;;;2.67;1.10;;;;;;;17.38;78.81;99394.00;5061854;28;20084;-68
2022/08/06 04:29:32;;;;;;;2.92;1.15;;;;;;;17.52;77.58;99396.28;5043066;28;20139;-69
2022/08/06 04:31:59;;;;;;;2.10;0.90;;;;;;;17.65;77.70;99389.78;5030810;28;20043;-70
2022/08/06 04:34:26;;;;;;;3.05;1.40;;;;;;;17.59;76.39;99388.00;5039527;28;20140;-67
2022/08/06 04:36:52;;;;;;;3.90;1.02;;;;;;;17.59;77.46;99390.72;5039184;28;20036;-70
2022/08/06 04:39:20;;;;;;;1.75;1.10;;;;;;;17.55;76.93;99403.19;5045951;28;20089;-68
2022/08/06 04:41:45;;;;;;;1.75;0.95;;;;;;;17.64;76.83;99403.72;5042171;28;20032;-68
2022/08/06 04:44:11;;;;;;;3.33;1.00;;;;;;;17.62;76.59;99408.59;5040434;28;20029;-68
2022/08/06 04:46:37;;;;;;;2.35;1.20;;;;;;;17.57;77.37;99408.44;5045286;28;20031;-68
2022/08/06 04:49:04;;;;;;;3.78;1.40;;;;;;;17.42;78.34;99404.25;5040803;28;20037;-69
2022/08/06 04:51:29;;;;;;;3.03;1.20;;;;;;;17.38;78.35;99399.47;5035965;28;20068;-66
2022/08/06 04:53:54;;;;;;;6.40;1.00;;;;;;;17.31;79.66;99416.81;5041844;28;20064;-69
2022/08/06 04:56:20;;;;;;;4.15;1.50;;;;;;;17.31;80.30;99405.88;5042149;28;20112;-69
2022/08/06 04:58:45;;;;;;;1.35;0.93;;;;;;;17.40;80.59;99417.34;5043896;28;20044;-70
2022/08/06 05:01:10;;;;;;;3.17;1.30;;;;;;;17.49;79.73;99415.91;5038659;28;20120;-70
2022/08/06 05:03:36;;;;;;;5.28;1.40;;;;;;;17.46;79.12;99421.88;5041207;28;20060;-70
2022/08/06 05:06:22;;;;;;;8.00;1.35;;;;;;;17.47;78.96;99419.94;5023484;28;20020;-71
2022/08/06 05:08:54;;;;;;;4.00;1.55;;;;;;;17.57;79.01;99422.97;5046890;28;20116;-71
2022/08/06 05:11:31;;;;;;;4.30;1.30;;;;;;;17.75;77.46;99428.34;5043687;28;20029;-71
2022/08/06 05:14:05;;;;;;;3.08;1.10;;;;;;;17.81;77.66;99425.78;5041519;28;20036;-71
2022/08/06 05:16:33;;;;;;;5.20;1.50;;;;;;;17.80;77.39;99435.91;5045756;28;20013;-71
2022/08/06 05:19:03;;;;;;;4.28;1.35;;;;;;;17.71;78.51;99438.13;5039340;28;20466;-70
2022/08/06 05:21:36;;;;;;;1.73;1.20;;;;;;;17.71;80.69;99438.13;5018420;28;20036;-73
2022/08/06 05:24:02;;;;;;;4.05;1.20;;;;;;;17.66;79.37;99434.44;5040579;28;20029;-72
2022/08/06 05:26:28;;;;;;;3.03;1.30;;;;;;;17.61;80.17;99442.50;5044665;28;20058;-68
2022/08/06 05:28:53;;;;;;;2.10;1.20;;;;;;;17.64;80.29;99448.31;5044709;28;20494;-69
2022/08/06 05:31:34;;;;;;;3.75;1.30;;;;;;;17.80;78.86;99452.31;5038469;28;20060;-67
2022/08/06 05:34:00;;;;;;;4.85;1.40;;;;;;;17.93;76.81;99441.16;5036879;28;20528;-67
2022/08/06 05:36:26;;;;;;;4.85;1.40;;;;;;;18.23;74.60;99444.88;5043694;28;20057;-66
2022/08/06 05:38:51;;;;;;;2.90;1.05;;;;;;;18.52;73.53;99443.06;5041095;28;20037;-68
2022/08/06 05:41:16;;;;;;;2.28;1.10;;;;;;;18.42;72.21;99448.31;5036963;28;20152;-68
2022/08/06 05:43:41;;;;;;;4.13;1.45;;;;;;;18.76;71.73;99443.94;5039343;28;20040;-68
2022/08/06 05:46:09;;;;;;;1.77;1.05;;;;;;;19.22;68.51;99442.94;5041236;28;20048;-70
2022/08/06 05:48:41;;;;;;;2.95;1.15;;;;;;;19.44;65.29;99450.50;5039157;28;20560;-71
2022/08/06 05:51:16;;;;;;;5.05;1.10;;;;;;;19.55;64.11;99438.66;5015026;28;20083;-67
2022/08/06 05:53:47;;;;;;;1.65;1.08;;;;;;;19.82;63.44;99441.63;5043436;28;20470;-68
2022/08/06 05:56:18;;;;;;;1.88;0.95;;;;;;;19.89;62.11;99445.03;5040949;28;20025;-68
2022/08/06 05:58:55;;;;;;;1.98;0.90;;;;;;;20.42;60.79;99444.78;5036596;28;20032;-68
2022/08/06 06:01:22;;;;;;;2.70;0.95;;;;;;;20.39;59.67;99434.28;5025066;28;20028;-69
2022/08/06 06:03:49;;;;;;;1.60;0.85;;;;;;;20.47;59.56;99459.41;5044049;28;20076;-68
2022/08/06 06:06:14;;;;;;;2.55;0.90;;;;;;;20.60;58.79;99447.28;5039515;28;20040;-69
2022/08/06 06:08:41;;;;;;;1.88;1.00;;;;;;;20.72;58.05;99456.25;5039469;28;20382;-69
2022/08/06 06:11:08;;;;;;;1.98;0.90;;;;;;;20.71;57.97;99462.00;5032708;28;20113;-69
2022/08/06 06:13:33;;;;;;;3.35;1.00;;;;;;;20.70;57.94;99466.66;5034228;28;20040;-69
2022/08/06 06:16:26;;;;;;;2.30;0.95;;;;;;;20.76;57.15;99460.13;5036358;28;20024;-69
2022/08/06 06:19:06;;;;;;;4.03;1.13;;;;;;;21.42;55.78;99473.09;5035857;28;20040;-68
2022/08/06 06:21:57;;;;;;;1.38;0.80;;;;;;;21.63;54.68;99465.88;5036321;28;20674;-65
2022/08/06 06:24:32;;;;;;;2.55;1.10;;;;;;;21.77;53.54;99471.78;5036935;28;20036;-67
2022/08/06 06:27:06;;;;;;;1.88;0.93;;;;;;;22.65;52.13;99471.44;5037452;28;20033;-70
2022/08/06 06:29:44;;;;;;;2.70;0.80;;;;;;;23.52;49.90;99475.44;5042395;28;20137;-71
2022/08/06 06:32:24;;;;;;;4.28;1.25;;;;;;;24.85;47.28;99469.94;5036928;28;20104;-72
2022/08/06 06:35:15;;;;;;;5.07;0.90;;;;;;;26.32;43.56;99474.97;5040179;28;20028;-73
2022/08/06 06:38:17;;;;;;;2.63;0.80;;;;;;;27.54;41.38;99469.22;5031937;28;20103;-72
2022/08/06 06:41:00;;;;;;;5.65;1.00;;;;;;;27.61;40.22;99472.44;5037478;28;20521;-68
2022/08/06 06:43:47;;;;;;;4.80;1.00;;;;;;;27.91;40.02;99478.72;5023521;28;20083;-71
2022/08/06 06:46:20;;;;;;;2.30;0.90;;;;;;;27.76;39.48;99488.88;5043786;28;20070;-72
2022/08/06 06:48:54;;;;;;;2.63;0.77;;;;;;;28.42;38.35;99478.69;5040045;28;20116;-72
2022/08/06 06:51:29;;;;;;;1.50;0.85;;;;;;;28.08;38.92;99481.75;5024301;28;20026;-73
2022/08/06 06:53:55;;;;;;;3.30;1.10;;;;;;;28.66;37.94;99477.72;5049720;28;20383;-70
2022/08/06 06:56:26;;;;;;;4.88;1.00;;;;;;;28.83;38.23;99479.94;5052634;28;20026;-70
2022/08/06 06:59:11;;;;;;;2.92;0.90;;;;;;;29.21;37.33;99496.47;5041973;28;20040;-74
2022/08/06 07:01:38;;;;;;;1.83;0.77;;;;;;;29.00;37.61;99494.09;5045459;28;20047;-75
2022/08/06 07:04:08;;;;;;;3.83;1.00;;;;;;;29.10;37.79;99497.81;5026205;28;20025;-67
2022/08/06 07:06:36;;;;;;;1.67;0.88;;;;;;;29.28;37.02;99471.81;5044729;28;20139;-71
2022/08/06 07:09:02;;;;;;;1.80;0.60;;;;;;;29.85;36.05;99488.97;5046641;28;20037;-71
2022/08/06 07:11:29;;;;;;;5.32;0.80;;;;;;;29.51;36.35;99494.19;5042317;28;20029;-69
2022/08/06 07:13:56;;;;;;;2.55;0.95;;;;;;;29.55;36.53;99498.81;5043534;28;20139;-72
2022/08/06 07:16:23;;;;;;;2.40;0.90;;;;;;;30.07;35.81;99495.69;5047582;28;20052;-69
2022/08/06 07:18:50;;;;;;;1.73;0.70;;;;;;;30.78;34.47;99493.91;5045139;28;20036;-72
2022/08/06 07:21:18;;;;;;;2.40;0.70;;;;;;;30.30;35.24;99499.38;5038829;28;20029;-70
2022/08/06 07:23:51;;;;;;;2.08;0.80;;;;;;;30.03;35.06;99478.78;5036584;28;20032;-72
2022/08/06 07:26:18;;;;;;;2.05;0.70;;;;;;;30.04;35.73;99493.56;5043386;28;20032;-70
2022/08/06 07:28:44;;;;;;;2.42;0.80;;;;;;;29.15;37.17;99494.94;5041427;28;20047;-74
2022/08/06 07:31:11;;;;;;;2.58;0.80;;;;;;;28.84;36.44;99498.28;5045295;28;20044;-73
2022/08/06 07:33:45;;;;;;;2.70;0.90;;;;;;;29.99;35.86;99494.50;5042500;28;20386;-73
2022/08/06 07:36:15;;;;;;;3.85;0.90;;;;;;;31.47;33.02;99506.56;5040148;28;20104;-74
2022/08/06 07:38:42;;;;;;;4.63;0.93;;;;;;;30.54;34.48;99507.41;5042202;28;20111;-74
2022/08/06 07:41:09;;;;;;;1.75;0.63;;;;;;;31.71;32.47;99486.53;5036820;28;20104;-75
2022/08/06 07:43:40;;;;;;;4.07;0.80;;;;;;;31.78;31.92;99516.78;5042710;28;20029;-75
2022/08/06 07:46:10;;;;;;;3.33;0.65;;;;;;;30.89;32.21;99513.19;5044482;28;20028;-73
2022/08/06 07:48:43;;;;;;;2.63;0.60;;;;;;;31.28;32.26;99515.16;5044477;28;20093;-74
2022/08/06 07:51:09;;;;;;;1.98;0.85;;;;;;;31.38;32.22;99511.28;5038326;28;20021;-77
2022/08/06 07:53:37;;;;;;;2.15;0.63;;;;;;;31.28;32.19;99514.34;5041186;28;20029;-76
2022/08/06 07:56:08;;;;;;;2.58;0.90;;;;;;;31.12;31.98;99517.56;5022264;28;20055;-71
2022/08/06 07:58:34;;;;;;;1.90;0.70;;;;;;;31.80;30.56;99520.09;5038612;28;20503;-74
2022/08/06 08:01:01;;;;;;;3.28;0.80;;;;;;;32.50;30.54;99513.38;5044396;28;20518;-75
2022/08/06 08:06:28;;;;;;;8.00;0.75;;;;;;;31.85;29.47;99517.97;5040334;28;20031;-72
2022/08/06 08:09:01;;;;;;;3.80;0.70;;;;;;;32.50;29.21;99512.56;5046820;28;20045;-72
2022/08/06 08:11:27;;;;;;;1.88;0.70;;;;;;;33.60;28.52;99508.03;5040079;28;20025;-71
2022/08/06 08:13:54;;;;;;;3.30;0.52;;;;;;;34.21;27.27;99509.59;5042651;28;20371;-72
2022/08/06 08:16:20;;;;;;;1.50;0.50;;;;;;;32.43;28.58;99503.81;5039211;28;20033;-72
2022/08/06 08:18:46;;;;;;;1.55;0.50;;;;;;;32.67;28.71;99503.28;5038143;28;20056;-72
2022/08/06 08:21:12;;;;;;;2.92;0.60;;;;;;;33.73;27.56;99499.72;5036863;28;20032;-71
2022/08/06 08:23:39;;;;;;;1.52;0.60;;;;;;;34.11;27.53;99490.34;5016226;28;20040;-71
2022/08/06 08:26:05;;;;;;;1.67;0.60;;;;;;;34.10;26.73;99478.28;5043725;28;20024;-72
2022/08/06 08:28:31;;;;;;;1.75;0.40;;;;;;;34.95;25.88;99493.75;5041342;28;20039;-70
2022/08/06 08:30:58;;;;;;;0.82;0.47;;;;;;;33.94;26.57;99496.91;5042913;28;20033;-70
2022/08/06 08:33:25;;;;;;;3.35;0.57;;;;;;;34.02;26.50;99491.22;5041218;28;20029;-71
2022/08/06 08:35:50;;;;;;;2.63;0.50;;;;;;;35.07;25.33;99493.81;5040148;28;20083;-71
2022/08/06 08:38:15;;;;;;;1.30;0.40;;;;;;;34.81;25.46;99493.28;5039370;28;20037;-73
2022/08/06 08:40:42;;;;;;;1.67;0.38;;;;;;;35.15;24.82;99486.44;5042322;28;20287;-71
2022/08/06 08:43:11;;;;;;;2.08;0.60;;;;;;;33.71;26.19;99488.81;5042086;28;20028;-72
2022/08/06 08:45:39;;;;;;;3.38;1.02;;;;;;;34.25;25.42;99491.69;5025388;28;20056;-72
2022/08/06 08:48:06;;;;;;;0.68;0.47;;;;;;;34.01;25.55;99483.97;5040875;28;20049;-71
2022/08/06 08:50:32;;;;;;;4.05;0.40;;;;;;;33.03;26.90;99486.03;5039344;28;20051;-69
2022/08/06 08:53:05;;;;;;;1.52;0.30;;;;;;;32.74;26.39;99482.00;5044165;28;20131;-76
2022/08/06 08:55:31;;;;;;;1.55;0.60;;;;;;;35.03;24.34;99487.22;5034822;28;20033;-70
2022/08/06 08:57:57;;;;;;;1.88;0.45;;;;;;;34.62;25.09;99489.03;5043465;28;20500;-70
2022/08/06 09:00:23;;;;;;;3.03;0.55;;;;;;;35.61;23.63;99480.66;5041129;28;21028;-70
2022/08/06 09:02:50;;;;;;;1.23;0.40;;;;;;;34.67;24.48;99485.19;5042571;28;20044;-71
2022/08/06 09:05:17;;;;;;;0.73;0.30;;;;;;;35.09;24.22;99474.59;5041529;28;20086;-70
2022/08/06 09:07:43;;;;;;;2.33;0.47;;;;;;;34.00;25.25;99484.28;5043818;28;20038;-71
2022/08/06 09:10:09;;;;;;;3.42;0.63;;;;;;;35.37;23.81;99485.16;5039959;28;20029;-70
2022/08/06 09:12:35;;;;;;;1.00;0.40;;;;;;;34.58;24.19;99488.06;5043323;28;20133;-71
2022/08/06 09:15:02;;;;;;;2.22;0.50;;;;;;;34.40;24.81;99487.44;5045001;28;20489;-70
2022/08/06 09:17:31;;;;;;;2.40;0.40;;;;;;;35.67;23.51;99490.53;5044088;28;20029;-71
2022/08/06 09:19:56;;;;;;;1.60;0.50;;;;;;;36.47;23.47;99494.47;5042624;28;20097;-71
2022/08/06 09:22:22;;;;;;;1.30;0.40;;;;;;;36.66;22.81;99488.22;5040937;28;20029;-71
2022/08/06 09:24:47;;;;;;;2.15;0.50;;;;;;;37.09;22.29;99478.88;5045620;28;20033;-71
2022/08/06 09:27:17;;;;;;;1.10;0.32;;;;;;;36.07;23.54;99499.00;5042961;28;20029;-70
2022/08/06 09:30:05;;;;;;;3.70;0.40;;;;;;;36.51;22.70;99496.22;5041378;28;20037;-71
2022/08/06 09:32:41;;;;;;;1.85;0.60;;;;;;;35.95;23.01;99499.84;5040292;28;20035;-71
2022/08/06 09:35:17;;;;;;;1.50;0.52;;;;;;;36.02;23.93;99499.22;5035194;28;20060;-71
2022/08/06 09:37:43;;;;;;;1.92;0.50;;;;;;;37.24;22.93;99497.78;5034683;28;20751;-70
2022/08/06 09:40:16;;;;;;;2.42;0.40;;;;;;;36.83;22.82;99505.56;5034621;28;20036;-71
2022/08/06 09:42:46;;;;;;;2.25;0.50;;;;;;;36.95;22.32;99498.22;5038153;28;20025;-71
2022/08/06 09:45:13;;;;;;;2.33;0.55;;;;;;;36.98;22.38;99487.03;5043266;28;20112;-71
2022/08/06 09:47:38;;;;;;;1.83;0.40;;;;;;;36.61;22.64;99489.28;5039412;28;20108;-71
2022/08/06 09:50:08;;;;;;;2.25;0.45;;;;;;;36.92;22.91;99501.75;5035053;28;20029;-71
2022/08/06 09:52:34;;;;;;;1.30;0.73;;;;;;;37.27;21.98;99485.75;5043368;28;20104;-70
2022/08/06 09:55:00;;;;;;;1.13;0.38;;;;;;;36.72;22.85;99493.19;5036168;28;20081;-71
2022/08/06 09:57:39;;;;;;;3.22;0.50;;;;;;;36.08;22.55;99502.63;5042590;28;20051;-71
2022/08/06 10:00:06;;;;;;;2.92;0.38;;;;;;;36.11;22.68;99493.50;5038161;28;20436;-71
2022/08/06 10:02:33;;;;;;;2.72;0.63;;;;;;;36.94;22.44;99488.13;5042069;28;20025;-71
2022/08/06 10:05:10;;;;;;;0.87;0.47;;;;;;;36.80;23.15;99492.19;5038720;28;20112;-72
2022/08/06 10:07:35;;;;;;;2.67;0.60;;;;;;;37.67;22.59;99503.66;5034184;28;20025;-72
2022/08/06 10:10:01;;;;;;;0.75;0.30;;;;;;;38.85;21.42;99482.66;5040844;28;20029;-72
2022/08/06 10:12:26;;;;;;;0.98;0.50;;;;;;;37.61;21.99;99488.19;5020755;28;20483;-72
2022/08/06 10:14:51;;;;;;;3.08;0.52;;;;;;;35.98;22.97;99501.94;5044016;28;20120;-72
2022/08/06 10:17:21;;;;;;;1.38;0.60;;;;;;;36.50;22.79;99496.56;5044630;28;20090;-71
2022/08/06 10:20:03;;;;;;;0.52;0.45;;;;;;;36.10;23.03;99480.56;5042442;28;20097;-71
2022/08/06 10:22:29;;;;;;;0.98;0.50;;;;;;;36.05;23.03;99503.31;5040256;28;22883;-72
2022/08/06 10:24:59;;;;;;;0.70;0.40;;;;;;;36.24;22.32;99495.09;5045112;28;20029;-73
2022/08/06 10:27:33;;;;;;;3.92;0.60;;;;;;;37.62;21.12;99489.81;5035469;28;20111;-72
2022/08/06 10:30:02;;;;;;;1.92;0.52;;;;;;;38.17;20.77;99489.81;5037150;28;20074;-73
2022/08/06 10:32:45;;;;;;;0.65;0.40;;;;;;;37.78;20.99;99489.75;5020814;28;20028;-74
2022/08/06 10:35:11;;;;;;;3.03;0.80;;;;;;;36.88;21.98;99495.22;5039498;28;20036;-73
2022/08/06 10:37:41;;;;;;;1.08;0.45;;;;;;;36.79;21.84;99493.41;5040580;28;20041;-72
2022/08/06 10:40:08;;;;;;;1.00;0.40;;;;;;;37.25;21.46;99493.78;5044647;28;20521;-72
2022/08/06 10:42:34;;;;;;;1.70;0.50;;;;;;;37.12;21.79;99492.22;5047195;28;20033;-72
2022/08/06 10:45:01;;;;;;;1.70;0.43;;;;;;;38.44;20.95;99480.31;5045050;28;20301;-73
2022/08/06 10:47:27;;;;;;;0.90;0.30;;;;;;;39.24;20.06;99492.66;5041186;28;20060;-72
2022/08/06 10:49:53;;;;;;;1.40;0.40;;;;;;;38.53;19.80;99495.03;5036280;28;20765;-72
2022/08/06 10:52:20;;;;;;;1.58;0.50;;;;;;;34.72;22.83;99489.78;5043385;28;20044;-72
2022/08/06 10:54:45;;;;;;;1.25;0.50;;;;;;;35.94;22.04;99491.75;5041742;28;20064;-73
2022/08/06 10:57:12;;;;;;;1.05;0.40;;;;;;;37.32;21.08;99476.19;5042586;28;20111;-73
2022/08/06 10:59:40;;;;;;;0.75;0.52;;;;;;;38.68;20.47;99479.16;5040681;28;20187;-73
2022/08/06 11:02:08;;;;;;;2.08;0.50;;;;;;;37.74;20.67;99486.88;5042832;28;20103;-71
2022/08/06 11:04:41;;;;;;;1.02;0.40;;;;;;;37.43;21.34;99480.09;5045762;28;20446;-73
2022/08/06 11:07:30;;;;;;;1.73;0.50;;;;;;;38.48;20.05;99483.19;5039822;28;20096;-74
2022/08/06 11:10:17;;;;;;;3.10;0.82;;;;;;;37.26;21.25;99478.50;5037263;28;20060;-72
2022/08/06 11:13:04;;;;;;;3.25;0.40;;;;;;;37.69;20.37;99475.88;5025153;28;20032;-71
2022/08/06 11:15:35;;;;;;;2.35;0.52;;;;;;;36.89;21.16;99463.00;5040929;28;20032;-74
2022/08/06 11:18:07;;;;;;;1.08;0.50;;;;;;;37.52;20.81;99468.66;5044964;28;20040;-75
2022/08/06 11:20:33;;;;;;;1.20;0.50;;;;;;;35.93;20.95;99465.59;5039626;28;20026;-72
2022/08/06 11:22:59;;;;;;;1.60;0.30;;;;;;;36.65;21.45;99467.63;5039799;28;20025;-74
2022/08/06 11:25:37;;;;;;;1.00;0.40;;;;;;;37.14;20.80;99458.84;5022422;28;20646;-73
2022/08/06 11:28:04;;;;;;;2.03;0.40;;;;;;;37.65;20.59;99466.47;5042637;28;20048;-73
2022/08/06 11:30:45;;;;;;;1.00;0.50;;;;;;;37.58;19.45;99453.03;5044533;28;20033;-70
2022/08/06 11:33:11;;;;;;;1.13;0.30;;;;;;;36.99;20.93;99454.00;5042971;28;20028;-73
2022/08/06 11:35:37;;;;;;;2.75;0.45;;;;;;;36.80;20.92;99455.53;5044257;28;20093;-73
2022/08/06 11:38:07;;;;;;;3.73;0.50;;;;;;;37.38;20.42;99457.78;5044015;28;20028;-73
2022/08/06 11:41:06;;;;;;;1.23;0.50;;;;;;;37.28;20.92;99445.09;5042424;28;20062;-74
2022/08/06 11:43:53;;;;;;;2.47;0.50;;;;;;;37.69;20.11;99436.34;5040317;28;20025;-73
2022/08/06 11:46:27;;;;;;;1.40;0.52;;;;;;;35.99;21.20;99452.88;5046789;28;20958;-71
2022/08/06 11:48:58;;;;;;;2.78;0.30;;;;;;;37.83;19.42;99445.09;5057937;28;20051;-74